createdAt,value
2023-04-26T00:02:07.578Z,7.10
2023-04-26T00:04:35.944Z,5.90
2023-04-26T00:07:04.090Z,9.00
2023-04-26T00:09:31.930Z,9.60
2023-04-26T00:11:59.794Z,7.90
2023-04-26T00:14:27.571Z,7.70
2023-04-26T00:16:55.610Z,7.90
2023-04-26T00:19:24.292Z,8.80
2023-04-26T00:21:51.940Z,8.90
2023-04-26T00:24:19.538Z,9.20
2023-04-26T00:26:47.201Z,9.10
2023-04-26T00:29:14.847Z,7.80
2023-04-26T00:31:42.593Z,11.70
2023-04-26T00:34:10.315Z,7.00
2023-04-26T00:36:37.926Z,7.30
2023-04-26T00:39:05.529Z,5.90
2023-04-26T00:41:33.177Z,5.90
2023-04-26T00:44:00.939Z,7.80
2023-04-26T00:46:29.473Z,7.10
2023-04-26T00:48:57.200Z,6.00
2023-04-26T00:51:24.808Z,5.40
2023-04-26T00:53:52.495Z,11.70
2023-04-26T00:56:20.127Z,6.00
2023-04-26T00:58:47.758Z,8.40
2023-04-26T01:01:15.767Z,9.20
2023-04-26T01:03:45.827Z,8.30
2023-04-26T01:06:13.639Z,9.00
2023-04-26T01:08:41.635Z,6.90
2023-04-26T01:11:09.221Z,7.90
2023-04-26T01:13:37.259Z,6.70
2023-04-26T01:16:04.961Z,6.50
2023-04-26T01:18:32.610Z,11.20
2023-04-26T01:21:02.083Z,9.00
2023-04-26T01:23:31.934Z,7.20
2023-04-26T01:25:59.590Z,5.30
2023-04-26T01:28:27.175Z,7.90
2023-04-26T01:30:54.844Z,9.20
2023-04-26T01:33:22.662Z,7.80
2023-04-26T01:35:50.241Z,8.10
2023-04-26T01:38:20.158Z,8.20
2023-04-26T01:40:48.116Z,9.00
2023-04-26T01:43:18.448Z,7.60
2023-04-26T01:45:49.355Z,7.50
2023-04-26T01:48:17.119Z,6.60
2023-04-26T01:50:44.726Z,13.90
2023-04-26T01:53:12.427Z,6.00
2023-04-26T01:55:40.137Z,4.60
2023-04-26T01:58:07.872Z,8.70
2023-04-26T02:00:36.439Z,7.40
2023-04-26T02:03:04.223Z,6.10
2023-04-26T02:05:31.924Z,5.70
2023-04-26T02:07:59.540Z,6.20
2023-04-26T02:10:27.238Z,5.80
2023-04-26T02:12:54.870Z,10.40
2023-04-26T02:15:23.030Z,8.50
2023-04-26T02:17:50.684Z,8.80
2023-04-26T02:20:18.454Z,7.20
2023-04-26T02:22:46.166Z,7.60
2023-04-26T02:25:13.828Z,9.30
2023-04-26T02:27:42.118Z,10.00
2023-04-26T02:30:10.789Z,8.10
2023-04-26T02:32:38.828Z,4.50
2023-04-26T02:35:06.866Z,6.70
2023-04-26T02:37:34.597Z,10.70
2023-04-26T02:40:02.260Z,10.40
2023-04-26T02:42:29.875Z,6.50
2023-04-26T02:44:57.541Z,8.30
2023-04-26T02:47:25.204Z,12.60
2023-04-26T02:49:52.920Z,6.70
2023-04-26T02:52:20.664Z,6.40
2023-04-26T02:54:48.258Z,10.20
2023-04-26T02:57:15.843Z,5.90
2023-04-26T02:59:44.479Z,9.00
2023-04-26T03:02:12.187Z,5.10
2023-04-26T03:04:40.118Z,10.30
2023-04-26T03:07:07.740Z,7.80
2023-04-26T03:09:38.183Z,10.20
2023-04-26T03:12:06.700Z,11.30
2023-04-26T03:14:34.880Z,12.00
2023-04-26T03:17:02.857Z,10.30
2023-04-26T03:19:30.629Z,14.20
2023-04-26T03:21:58.237Z,14.20
2023-04-26T03:24:26.346Z,17.40
2023-04-26T03:26:53.956Z,16.40
2023-04-26T03:29:21.759Z,11.40
2023-04-26T03:31:49.399Z,9.80
2023-04-26T03:34:17.001Z,12.00
2023-04-26T03:36:44.644Z,15.50
2023-04-26T03:39:12.466Z,10.80
2023-04-26T03:41:40.526Z,11.00
2023-04-26T03:44:08.242Z,10.60
2023-04-26T03:46:36.007Z,17.90
2023-04-26T03:49:03.842Z,10.20
2023-04-26T03:51:31.516Z,10.30
2023-04-26T03:53:59.482Z,10.60
2023-04-26T03:56:27.093Z,13.60
2023-04-26T03:58:54.759Z,11.20
2023-04-26T04:01:22.505Z,13.70
2023-04-26T04:03:50.506Z,12.30
2023-04-26T04:06:18.522Z,13.70
2023-04-26T04:08:46.278Z,13.40
2023-04-26T04:11:13.892Z,9.00
2023-04-26T04:13:41.629Z,10.10
2023-04-26T04:16:10.365Z,15.70
2023-04-26T04:18:38.175Z,12.40
2023-04-26T04:21:05.929Z,10.30
2023-04-26T04:23:33.604Z,11.10
2023-04-26T04:26:01.260Z,7.90
2023-04-26T04:28:29.941Z,12.90
2023-04-26T04:30:57.629Z,15.90
2023-04-26T04:33:28.621Z,10.40
2023-04-26T04:35:56.414Z,9.70
2023-04-26T04:38:24.544Z,9.00
2023-04-26T04:40:52.288Z,9.30
2023-04-26T04:43:20.179Z,14.20
2023-04-26T04:45:49.345Z,12.10
2023-04-26T04:48:17.055Z,11.90
2023-04-26T04:50:44.773Z,12.60
2023-04-26T04:53:15.335Z,14.60
2023-04-26T04:55:42.995Z,7.00
2023-04-26T04:58:11.103Z,8.40
2023-04-26T05:00:38.792Z,16.10
2023-04-26T05:03:09.962Z,11.90
2023-04-26T05:05:37.907Z,13.40
2023-04-26T05:08:07.780Z,10.60
2023-04-26T05:10:36.109Z,6.90
2023-04-26T05:13:03.837Z,17.90
2023-04-26T05:15:31.808Z,9.00
2023-04-26T05:17:59.674Z,7.10
2023-04-26T05:20:27.440Z,7.70
2023-04-26T05:22:55.060Z,6.40
2023-04-26T05:25:22.953Z,9.00
2023-04-26T05:27:51.174Z,6.30
2023-04-26T05:30:18.817Z,11.40
2023-04-26T05:32:46.596Z,10.00
2023-04-26T05:35:14.355Z,6.70
2023-04-26T05:37:41.947Z,4.40
2023-04-26T05:40:10.167Z,4.70
2023-04-26T05:42:37.766Z,5.30
2023-04-26T05:45:06.064Z,7.80
2023-04-26T05:47:33.809Z,6.90
2023-04-26T05:50:01.649Z,6.80
2023-04-26T05:52:29.416Z,7.00
2023-04-26T05:54:57.136Z,5.40
2023-04-26T05:57:27.436Z,6.30
2023-04-26T05:59:58.149Z,6.30
2023-04-26T06:02:26.316Z,5.00
2023-04-26T06:04:54.432Z,8.70
2023-04-26T06:07:22.452Z,6.50
2023-04-26T06:09:50.212Z,6.10
2023-04-26T06:12:17.973Z,2.70
2023-04-26T06:14:45.634Z,7.00
2023-04-26T06:17:13.324Z,8.10
2023-04-26T06:19:41.128Z,6.80
2023-04-26T06:22:08.723Z,4.90
2023-04-26T06:24:36.448Z,8.10
2023-04-26T06:27:04.119Z,4.50
2023-04-26T06:29:34.894Z,5.80
2023-04-26T06:32:02.746Z,5.00
2023-04-26T06:34:33.356Z,7.00
2023-04-26T06:37:01.005Z,5.90
2023-04-26T06:39:28.666Z,4.50
2023-04-26T06:41:56.315Z,7.20
2023-04-26T06:44:24.230Z,5.30
2023-04-26T06:46:55.363Z,4.70
2023-04-26T06:49:23.358Z,6.10
2023-04-26T06:51:52.870Z,6.80
2023-04-26T06:54:20.765Z,7.10
2023-04-26T06:56:48.399Z,4.90
2023-04-26T06:59:15.979Z,9.90
2023-04-26T07:01:43.596Z,4.20
2023-04-26T07:04:11.795Z,8.20
2023-04-26T07:06:39.665Z,7.20
2023-04-26T07:09:08.642Z,4.70
2023-04-26T07:11:36.302Z,6.80
2023-04-26T07:14:04.997Z,7.40
2023-04-26T07:16:32.691Z,8.90
2023-04-26T07:19:01.110Z,6.20
2023-04-26T07:21:28.790Z,5.80
2023-04-26T07:23:56.603Z,5.30
2023-04-26T07:26:24.740Z,4.60
2023-04-26T07:28:52.620Z,6.10
2023-04-26T07:31:20.654Z,9.00
2023-04-26T07:33:48.439Z,4.70
2023-04-26T07:36:16.115Z,6.20
2023-04-26T07:38:43.735Z,3.80
2023-04-26T07:41:13.119Z,7.00
2023-04-26T07:43:41.294Z,3.40
2023-04-26T07:46:08.958Z,4.30
2023-04-26T07:48:36.857Z,2.80
2023-04-26T07:51:11.286Z,8.40
2023-04-26T07:53:41.646Z,2.20
2023-04-26T07:56:09.609Z,4.70
2023-04-26T07:58:38.926Z,5.10
2023-04-26T08:01:06.661Z,6.50
2023-04-26T08:03:34.801Z,4.20
2023-04-26T08:06:03.268Z,6.50
2023-04-26T08:08:33.320Z,6.20
2023-04-26T08:11:01.062Z,4.70
2023-04-26T08:13:29.498Z,7.70
2023-04-26T08:15:57.523Z,4.90
2023-04-26T08:18:25.785Z,4.80
2023-04-26T08:20:55.426Z,2.20
2023-04-26T08:23:23.031Z,7.40
2023-04-26T08:25:50.728Z,4.10
2023-04-26T08:28:18.587Z,6.40
2023-04-26T08:30:46.446Z,5.70
2023-04-26T08:33:14.179Z,4.90
2023-04-26T08:35:41.950Z,4.70
2023-04-26T08:38:09.556Z,5.40
2023-04-26T08:40:37.279Z,5.50
2023-04-26T08:43:04.893Z,2.70
2023-04-26T08:45:34.680Z,4.60
2023-04-26T08:48:04.879Z,5.10
2023-04-26T08:50:33.602Z,5.40
2023-04-26T08:53:01.284Z,3.50
2023-04-26T08:55:29.031Z,6.50
2023-04-26T08:57:56.632Z,2.50
2023-04-26T09:00:24.529Z,11.30
2023-04-26T09:02:53.100Z,5.80
2023-04-26T09:05:26.740Z,5.00
2023-04-26T09:07:57.898Z,8.20
2023-04-26T09:10:26.442Z,6.60
2023-04-26T09:12:54.382Z,3.40
2023-04-26T09:15:23.011Z,11.10
2023-04-26T09:17:51.988Z,5.10
2023-04-26T09:20:21.814Z,4.10
2023-04-26T09:22:50.940Z,4.00
2023-04-26T09:25:19.993Z,4.70
2023-04-26T09:27:47.651Z,2.20
2023-04-26T09:30:20.865Z,2.50
2023-04-26T09:32:58.693Z,2.60
2023-04-26T09:35:34.019Z,3.70
2023-04-26T09:38:10.459Z,6.60
2023-04-26T09:40:44.296Z,5.30
2023-04-26T09:43:13.826Z,7.90
2023-04-26T09:45:44.341Z,5.30
2023-04-26T09:48:16.847Z,5.90
2023-04-26T09:50:46.227Z,6.80
2023-04-26T09:53:30.547Z,4.30
2023-04-26T09:56:26.057Z,10.80
2023-04-26T09:58:58.141Z,2.40
2023-04-26T10:01:26.805Z,1.90
2023-04-26T10:03:55.328Z,5.80
2023-04-26T10:06:23.662Z,4.00
2023-04-26T10:08:51.489Z,4.00
2023-04-26T10:11:19.392Z,4.90
2023-04-26T10:13:47.026Z,3.90
2023-04-26T10:16:14.675Z,5.50
2023-04-26T10:18:42.394Z,6.00
2023-04-26T10:21:22.441Z,5.30
2023-04-26T10:23:50.030Z,6.00
2023-04-26T10:26:53.484Z,4.80
2023-04-26T10:29:21.274Z,6.40
2023-04-26T10:32:08.733Z,5.30
2023-04-26T10:34:37.143Z,4.70
2023-04-26T10:37:14.868Z,3.60
2023-04-26T10:39:43.360Z,7.50
2023-04-26T10:42:24.035Z,3.00
2023-04-26T10:44:53.700Z,4.30
2023-04-26T10:47:34.867Z,3.10
2023-04-26T10:50:07.209Z,4.70
2023-04-26T10:52:36.031Z,4.10
2023-04-26T10:55:05.268Z,3.80
2023-04-26T10:57:54.014Z,4.10
2023-04-26T11:00:32.481Z,7.40
2023-04-26T11:03:04.752Z,3.60
2023-04-26T11:05:42.738Z,4.60
2023-04-26T11:08:18.735Z,4.00
2023-04-26T11:10:52.174Z,10.50
2023-04-26T11:13:20.455Z,2.80
2023-04-26T11:15:49.105Z,3.30
2023-04-26T11:18:21.369Z,3.00
2023-04-26T11:20:49.020Z,3.20
2023-04-26T11:23:18.460Z,2.50
2023-04-26T11:25:46.282Z,4.20
2023-04-26T11:28:14.107Z,3.40
2023-04-26T11:30:43.099Z,2.80
2023-04-26T11:33:20.513Z,2.90
2023-04-26T11:35:48.182Z,4.10
2023-04-26T11:38:15.822Z,4.80
2023-04-26T11:40:43.801Z,4.10
2023-04-26T11:43:11.920Z,3.50
2023-04-26T11:45:39.745Z,4.80
2023-04-26T11:48:08.488Z,4.10
2023-04-26T11:50:37.494Z,5.30
2023-04-26T11:53:06.638Z,4.70
2023-04-26T11:55:35.061Z,3.40
2023-04-26T11:58:10.234Z,4.10
2023-04-26T12:00:38.428Z,2.90
2023-04-26T12:03:11.190Z,3.50
2023-04-26T12:05:39.117Z,4.20
2023-04-26T12:08:06.800Z,3.50
2023-04-26T12:10:38.235Z,3.70
2023-04-26T12:13:05.897Z,2.30
2023-04-26T12:15:34.877Z,8.30
2023-04-26T12:18:10.339Z,4.00
2023-04-26T12:20:42.060Z,3.40
2023-04-26T12:23:13.463Z,3.10
2023-04-26T12:25:41.946Z,4.00
2023-04-26T12:28:12.713Z,9.00
2023-04-26T12:30:40.938Z,5.60
2023-04-26T12:33:17.100Z,6.00
2023-04-26T12:35:46.745Z,3.80
2023-04-26T12:38:15.770Z,8.20
2023-04-26T12:40:44.396Z,4.50
2023-04-26T12:43:12.299Z,7.00
2023-04-26T12:45:39.964Z,4.10
2023-04-26T12:48:07.911Z,3.30
2023-04-26T12:50:35.582Z,4.00
2023-04-26T12:53:03.237Z,3.80
2023-04-26T12:55:32.587Z,6.40
2023-04-26T12:58:00.734Z,3.10
2023-04-26T13:00:28.577Z,3.50
2023-04-26T13:02:56.609Z,3.70
2023-04-26T13:05:27.005Z,2.20
2023-04-26T13:07:54.660Z,2.10
2023-04-26T13:10:22.308Z,5.50
2023-04-26T13:12:49.963Z,5.30
2023-04-26T13:15:17.969Z,6.30
2023-04-26T13:17:46.333Z,10.00
2023-04-26T13:20:14.211Z,9.70
2023-04-26T13:22:43.396Z,4.70
2023-04-26T13:25:13.221Z,6.80
2023-04-26T13:27:41.114Z,5.40
2023-04-26T13:30:09.541Z,7.30
2023-04-26T13:32:37.252Z,6.00
2023-04-26T13:35:05.307Z,5.30
2023-04-26T13:37:33.033Z,7.60
2023-04-26T13:40:00.896Z,7.00
2023-04-26T13:42:28.684Z,6.60
2023-04-26T13:44:56.389Z,3.10
2023-04-26T13:47:24.046Z,6.50
2023-04-26T13:49:51.850Z,3.80
2023-04-26T13:52:19.466Z,4.30
2023-04-26T13:54:47.056Z,4.00
2023-04-26T13:57:14.710Z,3.00
2023-04-26T13:59:42.412Z,2.70
2023-04-26T14:02:10.720Z,3.90
2023-04-26T14:04:39.140Z,3.20
2023-04-26T14:07:07.074Z,3.30
2023-04-26T14:09:34.669Z,3.60
2023-04-26T14:12:08.439Z,5.30
2023-04-26T14:14:37.125Z,3.40
2023-04-26T14:17:04.810Z,2.90
2023-04-26T14:19:32.406Z,3.00
2023-04-26T14:22:00.147Z,16.40
2023-04-26T14:24:27.787Z,3.70
2023-04-26T14:26:55.444Z,2.90
2023-04-26T14:29:23.087Z,3.00
2023-04-26T14:31:50.969Z,3.60
2023-04-26T14:34:18.729Z,2.30
2023-04-26T14:36:46.397Z,5.70
2023-04-26T14:39:14.027Z,4.00
2023-04-26T14:41:42.508Z,5.20
2023-04-26T14:44:10.808Z,3.80
2023-04-26T14:46:38.645Z,4.30
2023-04-26T14:49:06.520Z,3.50
2023-04-26T14:51:34.392Z,5.40
2023-04-26T14:54:02.001Z,5.80
2023-04-26T14:56:34.127Z,3.20
2023-04-26T14:59:02.248Z,1.80
2023-04-26T15:01:30.636Z,5.90
2023-04-26T15:04:00.507Z,3.30
2023-04-26T15:06:30.805Z,4.60
2023-04-26T15:08:58.584Z,2.90
2023-04-26T15:11:26.195Z,3.90
2023-04-26T15:13:53.818Z,5.50
2023-04-26T15:16:22.044Z,2.90
2023-04-26T15:18:49.770Z,4.40
2023-04-26T15:21:17.965Z,3.50
2023-04-26T15:23:45.922Z,6.20
2023-04-26T15:26:14.214Z,3.80
2023-04-26T15:28:41.846Z,3.40
2023-04-26T15:31:09.853Z,3.10
2023-04-26T15:33:37.660Z,3.30
2023-04-26T15:36:05.687Z,4.80
2023-04-26T15:38:36.208Z,5.90
2023-04-26T15:41:04.418Z,3.20
2023-04-26T15:43:32.007Z,4.60
2023-04-26T15:45:59.664Z,4.20
2023-04-26T15:48:27.374Z,5.70
2023-04-26T15:50:56.871Z,3.90
2023-04-26T15:53:24.750Z,6.10
2023-04-26T15:55:52.798Z,4.70
2023-04-26T15:58:20.431Z,6.10
2023-04-26T16:00:48.039Z,5.40
2023-04-26T16:03:15.739Z,5.40
2023-04-26T16:05:43.562Z,4.80
2023-04-26T16:08:11.182Z,6.00
2023-04-26T16:10:38.939Z,3.50
2023-04-26T16:13:06.877Z,5.00
2023-04-26T16:15:34.478Z,3.50
2023-04-26T16:18:02.519Z,5.70
2023-04-26T16:20:31.521Z,7.10
2023-04-26T16:22:59.126Z,4.30
2023-04-26T16:25:26.846Z,3.90
2023-04-26T16:27:54.523Z,3.70
2023-04-26T16:30:22.192Z,5.80
2023-04-26T16:32:49.861Z,5.40
2023-04-26T16:35:17.880Z,4.00
2023-04-26T16:37:46.584Z,7.50
2023-04-26T16:40:14.543Z,4.60
2023-04-26T16:42:43.524Z,5.20
2023-04-26T16:45:14.567Z,6.10
2023-04-26T16:50:11.685Z,4.50
2023-04-26T16:52:39.294Z,7.20
2023-04-26T16:55:08.713Z,8.10
2023-04-26T16:57:36.317Z,4.80
2023-04-26T17:00:07.842Z,4.30
2023-04-26T17:02:36.326Z,5.10
2023-04-26T17:05:04.392Z,6.10
2023-04-26T17:07:32.049Z,4.50
2023-04-26T17:09:59.702Z,6.00
2023-04-26T17:12:27.313Z,5.40
2023-04-26T17:14:54.928Z,4.00
2023-04-26T17:17:22.544Z,4.10
2023-04-26T17:19:50.155Z,3.60
2023-04-26T17:22:17.796Z,4.90
2023-04-26T17:24:45.440Z,4.50
2023-04-26T17:27:13.189Z,4.40
2023-04-26T17:29:40.895Z,7.20
2023-04-26T17:32:08.490Z,5.20
2023-04-26T17:34:38.753Z,5.90
2023-04-26T17:37:06.411Z,4.70
2023-04-26T17:39:34.018Z,6.40
2023-04-26T17:42:03.118Z,5.90
2023-04-26T17:44:30.745Z,4.40
2023-04-26T17:46:58.389Z,6.00
2023-04-26T17:49:26.035Z,8.80
2023-04-26T17:51:53.670Z,3.80
2023-04-26T17:54:21.250Z,4.00
2023-04-26T17:56:48.880Z,10.90
2023-04-26T17:59:16.724Z,6.90
2023-04-26T18:01:44.336Z,4.90
2023-04-26T18:04:12.198Z,5.10
2023-04-26T18:06:40.433Z,5.60
2023-04-26T18:09:08.701Z,4.90
2023-04-26T18:11:36.367Z,4.70
2023-04-26T18:14:04.005Z,6.40
2023-04-26T18:16:31.655Z,6.40
2023-04-26T18:18:59.318Z,7.80
2023-04-26T18:21:26.917Z,5.30
2023-04-26T18:23:54.542Z,7.00
2023-04-26T18:26:23.092Z,6.80
2023-04-26T18:28:50.756Z,8.80
2023-04-26T18:31:18.540Z,6.30
2023-04-26T18:33:48.193Z,6.80
2023-04-26T18:36:16.417Z,7.90
2023-04-26T18:38:44.581Z,4.20
2023-04-26T18:41:12.252Z,6.90
2023-04-26T18:43:39.860Z,8.00
2023-04-26T18:46:07.579Z,8.90
2023-04-26T18:48:35.251Z,7.80
2023-04-26T18:51:02.938Z,8.80
2023-04-26T18:53:31.051Z,12.60
2023-04-26T18:55:58.646Z,12.10
2023-04-26T18:58:26.377Z,12.30
2023-04-26T19:00:54.042Z,9.00
2023-04-26T19:03:22.022Z,9.20
2023-04-26T19:05:49.966Z,8.30
2023-04-26T19:08:18.248Z,5.70
2023-04-26T19:10:45.911Z,5.80
2023-04-26T19:13:13.615Z,9.00
2023-04-26T19:15:41.314Z,9.40
2023-04-26T19:18:09.056Z,11.50
2023-04-26T19:20:37.086Z,12.90
2023-04-26T19:23:04.769Z,13.00
2023-04-26T19:25:32.406Z,13.40
2023-04-26T19:28:00.597Z,13.40
2023-04-26T19:30:28.264Z,15.80
2023-04-26T19:32:57.131Z,10.20
2023-04-26T19:35:24.803Z,12.60
2023-04-26T19:37:52.442Z,13.70
2023-04-26T19:40:20.091Z,12.00
2023-04-26T19:42:47.712Z,20.00
2023-04-26T19:45:17.503Z,13.80
2023-04-26T19:47:45.219Z,14.50
2023-04-26T19:50:12.943Z,10.30
2023-04-26T19:52:40.682Z,11.50
2023-04-26T19:55:10.393Z,11.50
2023-04-26T19:57:38.008Z,15.10
2023-04-26T20:00:08.114Z,14.70
2023-04-26T20:02:35.908Z,14.70
2023-04-26T20:05:05.053Z,11.30
2023-04-26T20:07:32.709Z,11.60
2023-04-26T20:10:00.328Z,17.50
2023-04-26T20:12:27.976Z,15.40
2023-04-26T20:14:55.674Z,10.40
2023-04-26T20:17:23.346Z,12.00
2023-04-26T20:19:51.722Z,11.00
2023-04-26T20:22:19.335Z,17.30
2023-04-26T20:24:46.932Z,16.00
2023-04-26T20:27:14.523Z,15.40
2023-04-26T20:29:42.231Z,19.90
2023-04-26T20:32:09.957Z,18.80
2023-04-26T20:34:37.780Z,19.30
2023-04-26T20:37:05.475Z,16.50
2023-04-26T20:39:33.913Z,14.90
2023-04-26T20:42:01.558Z,14.80
2023-04-26T20:44:30.024Z,15.20
2023-04-26T20:46:57.667Z,12.90
2023-04-26T20:49:25.284Z,11.70
2023-04-26T20:51:52.920Z,12.20
2023-04-26T20:54:20.918Z,13.60
2023-04-26T20:56:48.614Z,17.60
2023-04-26T20:59:16.275Z,28.80
2023-04-26T21:01:44.076Z,36.60
2023-04-26T21:04:11.984Z,32.70
2023-04-26T21:06:39.773Z,37.50
2023-04-26T21:09:07.582Z,43.40
2023-04-26T21:11:35.509Z,55.00
2023-04-26T21:14:04.370Z,49.50
2023-04-26T21:16:32.000Z,58.70
2023-04-26T21:18:59.608Z,71.00
2023-04-26T21:21:28.682Z,68.80
2023-04-26T21:23:56.685Z,59.10
2023-04-26T21:26:24.390Z,76.80
2023-04-26T21:28:52.033Z,73.30
2023-04-26T21:31:19.637Z,81.70
2023-04-26T21:33:47.330Z,74.60
2023-04-26T21:36:15.094Z,72.60
2023-04-26T21:38:43.069Z,76.90
2023-04-26T21:41:10.710Z,104.70
2023-04-26T21:43:38.718Z,122.70
2023-04-26T21:46:08.006Z,168.50
2023-04-26T21:48:35.936Z,145.10
2023-04-26T21:51:03.702Z,124.00
2023-04-26T21:53:31.397Z,121.80
2023-04-26T21:55:59.127Z,129.70
2023-04-26T21:58:27.098Z,147.50
2023-04-26T22:00:54.782Z,123.50
2023-04-26T22:03:22.570Z,109.70
2023-04-26T22:05:50.456Z,104.70
2023-04-26T22:08:18.048Z,77.50
2023-04-26T22:10:45.677Z,67.80
2023-04-26T22:13:13.284Z,72.00
2023-04-26T22:15:41.150Z,106.70
2023-04-26T22:18:08.893Z,105.70
2023-04-26T22:20:37.112Z,93.50
2023-04-26T22:23:04.807Z,89.60
2023-04-26T22:25:32.440Z,101.30
2023-04-26T22:28:00.105Z,165.70
2023-04-26T22:30:27.762Z,208.60
2023-04-26T22:32:57.433Z,197.30
2023-04-26T22:35:28.047Z,173.50
2023-04-26T22:37:55.863Z,149.50
2023-04-26T22:40:23.556Z,130.70
2023-04-26T22:42:51.250Z,126.00
2023-04-26T22:45:19.074Z,126.90
2023-04-26T22:47:46.917Z,118.40
2023-04-26T22:50:14.980Z,118.90
2023-04-26T22:52:42.572Z,113.80
2023-04-26T22:55:10.406Z,93.00
2023-04-26T22:57:38.039Z,93.30
2023-04-26T23:00:09.523Z,75.70
2023-04-26T23:02:37.302Z,85.20
2023-04-26T23:05:08.026Z,89.00
2023-04-26T23:07:36.844Z,124.60
2023-04-26T23:10:05.247Z,113.80
2023-04-26T23:12:33.494Z,117.30
2023-04-26T23:15:01.953Z,110.60
2023-04-26T23:17:30.140Z,120.40
2023-04-26T23:19:58.719Z,112.10
2023-04-26T23:22:28.108Z,99.20
2023-04-26T23:24:55.862Z,105.00
2023-04-26T23:27:24.843Z,89.30
2023-04-26T23:29:52.510Z,79.90
2023-04-26T23:32:20.192Z,80.60
2023-04-26T23:34:47.776Z,77.10
2023-04-26T23:37:16.218Z,78.50
2023-04-26T23:39:43.943Z,85.20
2023-04-26T23:42:11.644Z,55.60
2023-04-26T23:44:39.242Z,50.00
2023-04-26T23:47:06.891Z,43.30
2023-04-26T23:49:34.494Z,35.10
2023-04-26T23:52:02.154Z,49.50
2023-04-26T23:54:29.815Z,55.70
2023-04-26T23:56:57.549Z,52.50
2023-04-26T23:59:25.202Z,61.20
